sensor_id;sensor_type;location;lat;lon;timestamp;P1;durP1;ratioP1;P2;durP2;ratioP2
18188;SDS011;9219;50.396;8.546;2023-12-20T00:00:22;1.60;;;1.43;;
18188;SDS011;9219;50.396;8.546;2023-12-20T00:02:50;2.00;;;1.50;;
18188;SDS011;9219;50.396;8.546;2023-12-20T00:05:18;2.07;;;1.80;;
18188;SDS011;9219;50.396;8.546;2023-12-20T00:07:48;3.00;;;1.37;;
18188;SDS011;9219;50.396;8.546;2023-12-20T00:10:16;1.87;;;1.53;;
18188;SDS011;9219;50.396;8.546;2023-12-20T00:17:39;2.53;;;2.23;;
18188;SDS011;9219;50.396;8.546;2023-12-20T00:20:09;3.33;;;2.23;;
18188;SDS011;9219;50.396;8.546;2023-12-20T00:22:37;3.57;;;2.37;;
18188;SDS011;9219;50.396;8.546;2023-12-20T00:25:04;3.93;;;2.40;;
18188;SDS011;9219;50.396;8.546;2023-12-20T00:27:32;3.47;;;2.47;;
18188;SDS011;9219;50.396;8.546;2023-12-20T00:30:00;3.00;;;1.90;;
18188;SDS011;9219;50.396;8.546;2023-12-20T00:32:27;8.60;;;3.27;;
18188;SDS011;9219;50.396;8.546;2023-12-20T00:37:36;5.07;;;3.20;;
18188;SDS011;9219;50.396;8.546;2023-12-20T00:40:04;73.33;;;13.07;;
18188;SDS011;9219;50.396;8.546;2023-12-20T00:42:32;3.60;;;2.20;;
18188;SDS011;9219;50.396;8.546;2023-12-20T00:45:00;4.97;;;2.80;;
18188;SDS011;9219;50.396;8.546;2023-12-20T00:47:31;3.30;;;2.47;;
18188;SDS011;9219;50.396;8.546;2023-12-20T00:49:59;85.30;;;12.57;;
18188;SDS011;9219;50.396;8.546;2023-12-20T00:52:26;6.73;;;2.50;;
18188;SDS011;9219;50.396;8.546;2023-12-20T00:54:54;8.90;;;4.37;;
18188;SDS011;9219;50.396;8.546;2023-12-20T01:02:04;5.07;;;3.10;;
18188;SDS011;9219;50.396;8.546;2023-12-20T01:04:31;23.37;;;5.80;;
18188;SDS011;9219;50.396;8.546;2023-12-20T01:06:59;330.80;;;40.90;;
18188;SDS011;9219;50.396;8.546;2023-12-20T01:09:26;43.50;;;7.23;;
18188;SDS011;9219;50.396;8.546;2023-12-20T01:11:55;18.07;;;5.73;;
18188;SDS011;9219;50.396;8.546;2023-12-20T01:14:22;120.37;;;17.10;;
18188;SDS011;9219;50.396;8.546;2023-12-20T01:16:54;98.63;;;14.87;;
18188;SDS011;9219;50.396;8.546;2023-12-20T01:23:32;207.77;;;21.13;;
18188;SDS011;9219;50.396;8.546;2023-12-20T01:26:03;169.20;;;20.87;;
18188;SDS011;9219;50.396;8.546;2023-12-20T01:28:31;392.80;;;43.93;;
18188;SDS011;9219;50.396;8.546;2023-12-20T01:30:59;110.47;;;18.23;;
18188;SDS011;9219;50.396;8.546;2023-12-20T01:33:27;230.67;;;31.30;;
18188;SDS011;9219;50.396;8.546;2023-12-20T01:35:55;236.30;;;28.17;;
18188;SDS011;9219;50.396;8.546;2023-12-20T01:38:22;197.07;;;22.53;;
18188;SDS011;9219;50.396;8.546;2023-12-20T01:45:54;227.97;;;28.50;;
18188;SDS011;9219;50.396;8.546;2023-12-20T01:48:22;385.63;;;45.30;;
18188;SDS011;9219;50.396;8.546;2023-12-20T01:50:50;507.33;;;51.93;;
18188;SDS011;9219;50.396;8.546;2023-12-20T01:53:18;95.60;;;15.27;;
18188;SDS011;9219;50.396;8.546;2023-12-20T01:55:47;386.83;;;46.37;;
18188;SDS011;9219;50.396;8.546;2023-12-20T01:58:20;387.93;;;43.17;;
18188;SDS011;9219;50.396;8.546;2023-12-20T02:00:48;441.53;;;49.47;;
18188;SDS011;9219;50.396;8.546;2023-12-20T02:05:56;547.27;;;60.90;;
18188;SDS011;9219;50.396;8.546;2023-12-20T02:08:23;454.40;;;50.63;;
18188;SDS011;9219;50.396;8.546;2023-12-20T02:10:51;161.13;;;22.90;;
18188;SDS011;9219;50.396;8.546;2023-12-20T02:13:18;147.30;;;21.93;;
18188;SDS011;9219;50.396;8.546;2023-12-20T02:15:46;460.00;;;54.80;;
18188;SDS011;9219;50.396;8.546;2023-12-20T02:18:16;391.53;;;43.00;;
18188;SDS011;9219;50.396;8.546;2023-12-20T02:20:44;573.83;;;56.63;;
18188;SDS011;9219;50.396;8.546;2023-12-20T02:28:12;159.43;;;24.97;;
18188;SDS011;9219;50.396;8.546;2023-12-20T02:30:41;309.67;;;32.23;;
18188;SDS011;9219;50.396;8.546;2023-12-20T02:33:10;246.60;;;27.53;;
18188;SDS011;9219;50.396;8.546;2023-12-20T02:35:39;121.27;;;15.93;;
18188;SDS011;9219;50.396;8.546;2023-12-20T02:38:06;245.47;;;28.20;;
18188;SDS011;9219;50.396;8.546;2023-12-20T02:40:33;64.87;;;10.43;;
18188;SDS011;9219;50.396;8.546;2023-12-20T02:43:03;223.60;;;31.70;;
18188;SDS011;9219;50.396;8.546;2023-12-20T02:50:35;396.07;;;44.80;;
18188;SDS011;9219;50.396;8.546;2023-12-20T02:53:03;21.80;;;8.07;;
18188;SDS011;9219;50.396;8.546;2023-12-20T02:55:30;39.80;;;11.00;;
18188;SDS011;9219;50.396;8.546;2023-12-20T02:57:58;27.13;;;8.83;;
18188;SDS011;9219;50.396;8.546;2023-12-20T03:00:25;256.67;;;29.63;;
18188;SDS011;9219;50.396;8.546;2023-12-20T03:02:52;418.20;;;48.63;;
18188;SDS011;9219;50.396;8.546;2023-12-20T03:05:19;107.43;;;22.83;;
18188;SDS011;9219;50.396;8.546;2023-12-20T03:12:48;188.93;;;31.93;;
18188;SDS011;9219;50.396;8.546;2023-12-20T03:15:16;384.30;;;40.87;;
18188;SDS011;9219;50.396;8.546;2023-12-20T03:17:44;15.03;;;5.33;;
18188;SDS011;9219;50.396;8.546;2023-12-20T03:20:12;6.23;;;4.20;;
18188;SDS011;9219;50.396;8.546;2023-12-20T03:22:39;7.83;;;4.10;;
18188;SDS011;9219;50.396;8.546;2023-12-20T03:25:06;10.20;;;4.97;;
18188;SDS011;9219;50.396;8.546;2023-12-20T03:27:34;22.73;;;5.73;;
18188;SDS011;9219;50.396;8.546;2023-12-20T03:33:49;12.50;;;5.63;;
18188;SDS011;9219;50.396;8.546;2023-12-20T03:36:17;17.07;;;6.20;;
18188;SDS011;9219;50.396;8.546;2023-12-20T03:38:44;248.73;;;37.70;;
18188;SDS011;9219;50.396;8.546;2023-12-20T03:41:11;10.90;;;5.90;;
18188;SDS011;9219;50.396;8.546;2023-12-20T03:43:40;14.50;;;4.73;;
18188;SDS011;9219;50.396;8.546;2023-12-20T03:46:07;15.73;;;5.93;;
18188;SDS011;9219;50.396;8.546;2023-12-20T03:48:38;405.43;;;54.50;;
18188;SDS011;9219;50.396;8.546;2023-12-20T03:51:09;16.83;;;7.00;;
18188;SDS011;9219;50.396;8.546;2023-12-20T03:56:31;14.13;;;7.10;;
18188;SDS011;9219;50.396;8.546;2023-12-20T03:58:58;13.93;;;7.63;;
18188;SDS011;9219;50.396;8.546;2023-12-20T04:01:26;9.90;;;5.70;;
18188;SDS011;9219;50.396;8.546;2023-12-20T04:03:54;12.03;;;6.73;;
18188;SDS011;9219;50.396;8.546;2023-12-20T04:06:21;15.50;;;7.00;;
18188;SDS011;9219;50.396;8.546;2023-12-20T04:08:50;14.70;;;6.60;;
18188;SDS011;9219;50.396;8.546;2023-12-20T04:11:20;21.30;;;5.50;;
18188;SDS011;9219;50.396;8.546;2023-12-20T04:18:55;11.17;;;5.93;;
18188;SDS011;9219;50.396;8.546;2023-12-20T04:21:23;11.53;;;6.37;;
18188;SDS011;9219;50.396;8.546;2023-12-20T04:23:51;13.50;;;6.43;;
18188;SDS011;9219;50.396;8.546;2023-12-20T04:26:19;12.57;;;6.70;;
18188;SDS011;9219;50.396;8.546;2023-12-20T04:28:46;16.37;;;8.00;;
18188;SDS011;9219;50.396;8.546;2023-12-20T04:31:13;13.90;;;7.67;;
18188;SDS011;9219;50.396;8.546;2023-12-20T04:33:41;15.47;;;7.23;;
18188;SDS011;9219;50.396;8.546;2023-12-20T04:39:38;10.97;;;6.60;;
18188;SDS011;9219;50.396;8.546;2023-12-20T04:42:10;13.17;;;6.43;;
18188;SDS011;9219;50.396;8.546;2023-12-20T04:44:48;12.10;;;6.43;;
18188;SDS011;9219;50.396;8.546;2023-12-20T04:47:17;12.23;;;5.10;;
18188;SDS011;9219;50.396;8.546;2023-12-20T04:49:45;16.10;;;5.97;;
18188;SDS011;9219;50.396;8.546;2023-12-20T04:52:30;18.23;;;6.20;;
18188;SDS011;9219;50.396;8.546;2023-12-20T04:54:59;8.63;;;5.33;;
18188;SDS011;9219;50.396;8.546;2023-12-20T04:57:27;7.13;;;4.57;;
18188;SDS011;9219;50.396;8.546;2023-12-20T05:07:21;7.67;;;3.80;;
18188;SDS011;9219;50.396;8.546;2023-12-20T05:09:48;8.30;;;2.93;;
18188;SDS011;9219;50.396;8.546;2023-12-20T05:12:16;8.33;;;2.70;;
18188;SDS011;9219;50.396;8.546;2023-12-20T05:14:43;19.27;;;4.07;;
18188;SDS011;9219;50.396;8.546;2023-12-20T05:17:10;6.20;;;3.17;;
18188;SDS011;9219;50.396;8.546;2023-12-20T05:19:40;5.87;;;2.53;;
18188;SDS011;9219;50.396;8.546;2023-12-20T05:22:10;5.70;;;2.80;;
18188;SDS011;9219;50.396;8.546;2023-12-20T05:27:33;8.97;;;3.80;;
18188;SDS011;9219;50.396;8.546;2023-12-20T05:30:00;10.87;;;2.77;;
18188;SDS011;9219;50.396;8.546;2023-12-20T05:32:28;14.50;;;2.93;;
18188;SDS011;9219;50.396;8.546;2023-12-20T05:34:55;8.53;;;2.80;;
18188;SDS011;9219;50.396;8.546;2023-12-20T05:37:23;19.47;;;5.87;;
18188;SDS011;9219;50.396;8.546;2023-12-20T05:39:52;8.93;;;2.87;;
18188;SDS011;9219;50.396;8.546;2023-12-20T05:42:19;11.33;;;2.83;;
18188;SDS011;9219;50.396;8.546;2023-12-20T05:48:15;12.70;;;2.67;;
18188;SDS011;9219;50.396;8.546;2023-12-20T05:50:42;6.43;;;3.17;;
18188;SDS011;9219;50.396;8.546;2023-12-20T05:53:10;11.80;;;3.33;;
18188;SDS011;9219;50.396;8.546;2023-12-20T05:55:37;12.43;;;3.73;;
18188;SDS011;9219;50.396;8.546;2023-12-20T05:58:04;15.60;;;3.43;;
18188;SDS011;9219;50.396;8.546;2023-12-20T06:00:32;10.67;;;3.70;;
18188;SDS011;9219;50.396;8.546;2023-12-20T06:02:59;13.63;;;2.70;;
18188;SDS011;9219;50.396;8.546;2023-12-20T06:05:28;7.77;;;3.33;;
18188;SDS011;9219;50.396;8.546;2023-12-20T06:10:51;15.90;;;3.57;;
18188;SDS011;9219;50.396;8.546;2023-12-20T06:13:19;6.90;;;3.57;;
18188;SDS011;9219;50.396;8.546;2023-12-20T06:15:52;5.83;;;2.73;;
18188;SDS011;9219;50.396;8.546;2023-12-20T06:18:20;6.73;;;3.27;;
18188;SDS011;9219;50.396;8.546;2023-12-20T06:20:48;15.67;;;3.50;;
18188;SDS011;9219;50.396;8.546;2023-12-20T06:23:22;13.10;;;3.70;;
18188;SDS011;9219;50.396;8.546;2023-12-20T06:25:49;14.30;;;4.50;;
18188;SDS011;9219;50.396;8.546;2023-12-20T06:33:18;11.03;;;4.17;;
18188;SDS011;9219;50.396;8.546;2023-12-20T06:35:47;14.17;;;4.13;;
18188;SDS011;9219;50.396;8.546;2023-12-20T06:38:14;15.50;;;4.37;;
18188;SDS011;9219;50.396;8.546;2023-12-20T06:40:43;7.47;;;3.47;;
18188;SDS011;9219;50.396;8.546;2023-12-20T06:43:11;7.53;;;3.50;;
18188;SDS011;9219;50.396;8.546;2023-12-20T06:45:57;25.97;;;4.20;;
18188;SDS011;9219;50.396;8.546;2023-12-20T06:48:26;12.80;;;4.57;;
18188;SDS011;9219;50.396;8.546;2023-12-20T06:55:54;7.83;;;3.33;;
18188;SDS011;9219;50.396;8.546;2023-12-20T06:58:22;14.47;;;6.40;;
18188;SDS011;9219;50.396;8.546;2023-12-20T07:00:50;8.03;;;2.50;;
18188;SDS011;9219;50.396;8.546;2023-12-20T07:03:18;6.03;;;2.23;;
18188;SDS011;9219;50.396;8.546;2023-12-20T07:05:45;13.80;;;3.40;;
18188;SDS011;9219;50.396;8.546;2023-12-20T07:08:13;14.63;;;3.13;;
18188;SDS011;9219;50.396;8.546;2023-12-20T07:10:46;12.40;;;4.27;;
18188;SDS011;9219;50.396;8.546;2023-12-20T07:18:22;12.30;;;3.03;;
18188;SDS011;9219;50.396;8.546;2023-12-20T07:20:52;11.53;;;4.83;;
18188;SDS011;9219;50.396;8.546;2023-12-20T07:23:20;12.17;;;4.00;;
18188;SDS011;9219;50.396;8.546;2023-12-20T07:25:47;11.80;;;4.73;;
18188;SDS011;9219;50.396;8.546;2023-12-20T07:28:14;20.93;;;5.27;;
18188;SDS011;9219;50.396;8.546;2023-12-20T07:30:53;12.17;;;3.93;;
18188;SDS011;9219;50.396;8.546;2023-12-20T07:33:21;7.17;;;4.17;;
18188;SDS011;9219;50.396;8.546;2023-12-20T07:38:35;13.00;;;3.77;;
18188;SDS011;9219;50.396;8.546;2023-12-20T07:41:04;10.57;;;2.40;;
18188;SDS011;9219;50.396;8.546;2023-12-20T07:43:31;7.17;;;2.90;;
18188;SDS011;9219;50.396;8.546;2023-12-20T07:46:03;15.17;;;3.30;;
18188;SDS011;9219;50.396;8.546;2023-12-20T07:48:32;10.13;;;4.83;;
18188;SDS011;9219;50.396;8.546;2023-12-20T07:51:00;15.50;;;3.80;;
18188;SDS011;9219;50.396;8.546;2023-12-20T07:53:27;11.13;;;3.37;;
18188;SDS011;9219;50.396;8.546;2023-12-20T07:58:34;11.80;;;2.87;;
18188;SDS011;9219;50.396;8.546;2023-12-20T08:01:17;12.23;;;3.50;;
18188;SDS011;9219;50.396;8.546;2023-12-20T08:03:45;9.43;;;2.83;;
18188;SDS011;9219;50.396;8.546;2023-12-20T08:06:13;15.63;;;3.60;;
18188;SDS011;9219;50.396;8.546;2023-12-20T08:08:40;6.83;;;3.30;;
18188;SDS011;9219;50.396;8.546;2023-12-20T08:11:10;14.50;;;4.17;;
18188;SDS011;9219;50.396;8.546;2023-12-20T08:13:39;6.73;;;2.83;;
18188;SDS011;9219;50.396;8.546;2023-12-20T08:20:49;14.87;;;3.77;;
18188;SDS011;9219;50.396;8.546;2023-12-20T08:23:18;10.53;;;4.00;;
18188;SDS011;9219;50.396;8.546;2023-12-20T08:25:49;15.87;;;3.63;;
18188;SDS011;9219;50.396;8.546;2023-12-20T08:28:16;6.37;;;2.93;;
18188;SDS011;9219;50.396;8.546;2023-12-20T08:30:50;10.20;;;3.67;;
18188;SDS011;9219;50.396;8.546;2023-12-20T08:33:19;16.87;;;3.73;;
18188;SDS011;9219;50.396;8.546;2023-12-20T08:35:49;20.93;;;3.27;;
18188;SDS011;9219;50.396;8.546;2023-12-20T08:43:26;9.90;;;3.07;;
18188;SDS011;9219;50.396;8.546;2023-12-20T08:45:53;14.60;;;3.70;;
18188;SDS011;9219;50.396;8.546;2023-12-20T08:48:21;11.17;;;2.50;;
18188;SDS011;9219;50.396;8.546;2023-12-20T08:50:50;9.83;;;2.40;;
18188;SDS011;9219;50.396;8.546;2023-12-20T08:53:18;9.20;;;2.67;;
18188;SDS011;9219;50.396;8.546;2023-12-20T08:55:46;13.87;;;2.87;;
18188;SDS011;9219;50.396;8.546;2023-12-20T08:58:16;10.40;;;2.83;;
18188;SDS011;9219;50.396;8.546;2023-12-20T09:05:53;6.83;;;2.30;;
18188;SDS011;9219;50.396;8.546;2023-12-20T09:08:25;9.63;;;2.63;;
18188;SDS011;9219;50.396;8.546;2023-12-20T09:10:54;7.73;;;3.80;;
18188;SDS011;9219;50.396;8.546;2023-12-20T09:13:22;11.63;;;3.73;;
18188;SDS011;9219;50.396;8.546;2023-12-20T09:15:54;15.27;;;2.93;;
18188;SDS011;9219;50.396;8.546;2023-12-20T09:18:22;13.53;;;2.70;;
18188;SDS011;9219;50.396;8.546;2023-12-20T09:20:49;17.23;;;3.73;;
18188;SDS011;9219;50.396;8.546;2023-12-20T09:23:18;6.03;;;2.40;;
18188;SDS011;9219;50.396;8.546;2023-12-20T09:30:49;13.83;;;3.23;;
18188;SDS011;9219;50.396;8.546;2023-12-20T09:33:20;4.37;;;1.70;;
18188;SDS011;9219;50.396;8.546;2023-12-20T09:35:48;11.67;;;3.67;;
18188;SDS011;9219;50.396;8.546;2023-12-20T09:38:15;14.97;;;2.97;;
18188;SDS011;9219;50.396;8.546;2023-12-20T09:40:43;5.03;;;2.33;;
18188;SDS011;9219;50.396;8.546;2023-12-20T09:43:13;15.63;;;3.57;;
18188;SDS011;9219;50.396;8.546;2023-12-20T09:45:43;5.70;;;2.60;;
18188;SDS011;9219;50.396;8.546;2023-12-20T09:53:17;10.43;;;2.40;;
18188;SDS011;9219;50.396;8.546;2023-12-20T09:55:45;14.30;;;3.67;;
18188;SDS011;9219;50.396;8.546;2023-12-20T09:58:13;5.50;;;1.90;;
18188;SDS011;9219;50.396;8.546;2023-12-20T10:00:42;9.50;;;3.43;;
18188;SDS011;9219;50.396;8.546;2023-12-20T10:03:12;9.50;;;2.47;;
18188;SDS011;9219;50.396;8.546;2023-12-20T10:05:41;5.10;;;2.50;;
18188;SDS011;9219;50.396;8.546;2023-12-20T10:08:11;9.13;;;3.10;;
18188;SDS011;9219;50.396;8.546;2023-12-20T10:15:51;13.47;;;3.77;;
18188;SDS011;9219;50.396;8.546;2023-12-20T10:18:24;11.97;;;2.50;;
18188;SDS011;9219;50.396;8.546;2023-12-20T10:21:05;11.07;;;2.60;;
18188;SDS011;9219;50.396;8.546;2023-12-20T10:23:32;10.73;;;2.80;;
18188;SDS011;9219;50.396;8.546;2023-12-20T10:26:07;8.93;;;2.73;;
18188;SDS011;9219;50.396;8.546;2023-12-20T10:28:35;4.03;;;2.93;;
18188;SDS011;9219;50.396;8.546;2023-12-20T10:31:07;8.23;;;3.63;;
18188;SDS011;9219;50.396;8.546;2023-12-20T10:39:01;17.40;;;4.17;;
18188;SDS011;9219;50.396;8.546;2023-12-20T10:41:30;14.60;;;3.97;;
18188;SDS011;9219;50.396;8.546;2023-12-20T10:43:59;6.43;;;2.40;;
18188;SDS011;9219;50.396;8.546;2023-12-20T10:46:27;4.50;;;2.27;;
18188;SDS011;9219;50.396;8.546;2023-12-20T10:48:57;8.33;;;2.23;;
18188;SDS011;9219;50.396;8.546;2023-12-20T10:51:26;12.57;;;2.40;;
18188;SDS011;9219;50.396;8.546;2023-12-20T10:53:55;9.73;;;3.07;;
18188;SDS011;9219;50.396;8.546;2023-12-20T10:56:24;13.00;;;3.30;;
18188;SDS011;9219;50.396;8.546;2023-12-20T11:03:58;6.10;;;3.03;;
18188;SDS011;9219;50.396;8.546;2023-12-20T11:06:29;7.97;;;2.00;;
18188;SDS011;9219;50.396;8.546;2023-12-20T11:09:04;13.60;;;3.03;;
18188;SDS011;9219;50.396;8.546;2023-12-20T11:11:45;5.63;;;2.20;;
18188;SDS011;9219;50.396;8.546;2023-12-20T11:14:27;3.70;;;1.83;;
18188;SDS011;9219;50.396;8.546;2023-12-20T11:17:06;9.77;;;2.77;;
18188;SDS011;9219;50.396;8.546;2023-12-20T11:19:36;16.53;;;2.70;;
18188;SDS011;9219;50.396;8.546;2023-12-20T11:22:05;8.87;;;1.90;;
18188;SDS011;9219;50.396;8.546;2023-12-20T11:29:35;14.47;;;3.10;;
18188;SDS011;9219;50.396;8.546;2023-12-20T11:32:04;8.33;;;2.73;;
18188;SDS011;9219;50.396;8.546;2023-12-20T11:34:55;4.40;;;2.17;;
18188;SDS011;9219;50.396;8.546;2023-12-20T11:37:28;12.87;;;3.43;;
18188;SDS011;9219;50.396;8.546;2023-12-20T11:39:56;7.60;;;3.20;;
18188;SDS011;9219;50.396;8.546;2023-12-20T11:42:28;4.60;;;2.30;;
18188;SDS011;9219;50.396;8.546;2023-12-20T11:45:02;11.87;;;3.17;;
18188;SDS011;9219;50.396;8.546;2023-12-20T11:47:30;11.17;;;2.80;;
18188;SDS011;9219;50.396;8.546;2023-12-20T11:56:25;9.97;;;3.53;;
18188;SDS011;9219;50.396;8.546;2023-12-20T11:58:53;4.63;;;2.70;;
18188;SDS011;9219;50.396;8.546;2023-12-20T12:01:38;12.93;;;3.00;;
18188;SDS011;9219;50.396;8.546;2023-12-20T12:04:06;6.47;;;2.77;;
18188;SDS011;9219;50.396;8.546;2023-12-20T12:06:34;8.53;;;2.70;;
18188;SDS011;9219;50.396;8.546;2023-12-20T12:09:02;11.73;;;2.77;;
18188;SDS011;9219;50.396;8.546;2023-12-20T12:11:31;10.33;;;2.63;;
18188;SDS011;9219;50.396;8.546;2023-12-20T12:13:59;7.80;;;2.67;;
18188;SDS011;9219;50.396;8.546;2023-12-20T12:21:33;7.60;;;2.77;;
18188;SDS011;9219;50.396;8.546;2023-12-20T12:24:07;11.87;;;2.97;;
18188;SDS011;9219;50.396;8.546;2023-12-20T12:26:35;13.13;;;2.60;;
18188;SDS011;9219;50.396;8.546;2023-12-20T12:29:02;14.37;;;4.10;;
18188;SDS011;9219;50.396;8.546;2023-12-20T12:31:34;10.23;;;2.50;;
18188;SDS011;9219;50.396;8.546;2023-12-20T12:34:01;11.67;;;2.73;;
18188;SDS011;9219;50.396;8.546;2023-12-20T12:36:29;7.97;;;3.10;;
18188;SDS011;9219;50.396;8.546;2023-12-20T12:38:58;6.83;;;2.60;;
18188;SDS011;9219;50.396;8.546;2023-12-20T12:46:38;11.47;;;2.83;;
18188;SDS011;9219;50.396;8.546;2023-12-20T12:49:06;8.53;;;2.90;;
18188;SDS011;9219;50.396;8.546;2023-12-20T12:51:33;7.20;;;3.50;;
18188;SDS011;9219;50.396;8.546;2023-12-20T12:54:01;11.40;;;3.07;;
18188;SDS011;9219;50.396;8.546;2023-12-20T12:56:29;8.53;;;2.90;;
18188;SDS011;9219;50.396;8.546;2023-12-20T12:58:56;15.30;;;3.07;;
18188;SDS011;9219;50.396;8.546;2023-12-20T13:01:24;13.27;;;4.03;;
18188;SDS011;9219;50.396;8.546;2023-12-20T13:06:41;5.83;;;2.13;;
18188;SDS011;9219;50.396;8.546;2023-12-20T13:09:09;6.57;;;2.50;;
18188;SDS011;9219;50.396;8.546;2023-12-20T13:11:36;10.97;;;2.57;;
18188;SDS011;9219;50.396;8.546;2023-12-20T13:14:04;6.47;;;2.70;;
18188;SDS011;9219;50.396;8.546;2023-12-20T13:16:32;14.50;;;3.40;;
18188;SDS011;9219;50.396;8.546;2023-12-20T13:19:00;9.37;;;2.97;;
18188;SDS011;9219;50.396;8.546;2023-12-20T13:21:28;10.77;;;3.03;;
18188;SDS011;9219;50.396;8.546;2023-12-20T13:23:57;10.57;;;4.13;;
18188;SDS011;9219;50.396;8.546;2023-12-20T13:29:14;10.50;;;2.70;;
18188;SDS011;9219;50.396;8.546;2023-12-20T13:31:42;9.47;;;3.60;;
18188;SDS011;9219;50.396;8.546;2023-12-20T13:34:09;21.40;;;3.57;;
18188;SDS011;9219;50.396;8.546;2023-12-20T13:36:38;12.37;;;3.57;;
18188;SDS011;9219;50.396;8.546;2023-12-20T13:39:06;10.93;;;3.50;;
18188;SDS011;9219;50.396;8.546;2023-12-20T13:41:34;13.03;;;3.87;;
18188;SDS011;9219;50.396;8.546;2023-12-20T13:44:01;13.77;;;4.17;;
18188;SDS011;9219;50.396;8.546;2023-12-20T13:46:30;6.90;;;2.80;;
18188;SDS011;9219;50.396;8.546;2023-12-20T13:57:01;9.70;;;3.63;;
18188;SDS011;9219;50.396;8.546;2023-12-20T13:59:42;7.80;;;3.57;;
18188;SDS011;9219;50.396;8.546;2023-12-20T14:02:11;10.67;;;4.40;;
18188;SDS011;9219;50.396;8.546;2023-12-20T14:04:39;7.20;;;3.07;;
18188;SDS011;9219;50.396;8.546;2023-12-20T14:07:09;6.63;;;3.10;;
18188;SDS011;9219;50.396;8.546;2023-12-20T14:09:40;14.60;;;3.97;;
18188;SDS011;9219;50.396;8.546;2023-12-20T14:17:26;12.30;;;3.97;;
18188;SDS011;9219;50.396;8.546;2023-12-20T14:20:13;9.50;;;4.13;;
18188;SDS011;9219;50.396;8.546;2023-12-20T14:22:52;9.90;;;3.60;;
18188;SDS011;9219;50.396;8.546;2023-12-20T14:25:30;9.77;;;3.37;;
18188;SDS011;9219;50.396;8.546;2023-12-20T14:28:18;12.27;;;3.57;;
18188;SDS011;9219;50.396;8.546;2023-12-20T14:30:57;8.63;;;3.57;;
18188;SDS011;9219;50.396;8.546;2023-12-20T14:36:15;11.87;;;3.13;;
18188;SDS011;9219;50.396;8.546;2023-12-20T14:43:52;4.10;;;2.97;;
18188;SDS011;9219;50.396;8.546;2023-12-20T14:46:20;8.87;;;3.57;;
18188;SDS011;9219;50.396;8.546;2023-12-20T14:48:48;5.63;;;2.97;;
18188;SDS011;9219;50.396;8.546;2023-12-20T14:51:17;9.70;;;3.53;;
18188;SDS011;9219;50.396;8.546;2023-12-20T14:53:45;4.47;;;2.60;;
18188;SDS011;9219;50.396;8.546;2023-12-20T14:56:14;5.47;;;2.87;;
18188;SDS011;9219;50.396;8.546;2023-12-20T14:58:42;4.73;;;3.70;;
18188;SDS011;9219;50.396;8.546;2023-12-20T15:01:10;6.60;;;3.07;;
18188;SDS011;9219;50.396;8.546;2023-12-20T15:03:40;6.23;;;2.57;;
18188;SDS011;9219;50.396;8.546;2023-12-20T15:14:39;5.10;;;2.70;;
18188;SDS011;9219;50.396;8.546;2023-12-20T15:17:07;10.57;;;4.37;;
18188;SDS011;9219;50.396;8.546;2023-12-20T15:19:36;4.10;;;2.40;;
18188;SDS011;9219;50.396;8.546;2023-12-20T15:22:03;8.17;;;1.90;;
18188;SDS011;9219;50.396;8.546;2023-12-20T15:24:31;8.07;;;2.77;;
18188;SDS011;9219;50.396;8.546;2023-12-20T15:27:04;4.90;;;2.40;;
18188;SDS011;9219;50.396;8.546;2023-12-20T15:29:33;2.87;;;1.67;;
18188;SDS011;9219;50.396;8.546;2023-12-20T15:37:07;5.33;;;1.97;;
18188;SDS011;9219;50.396;8.546;2023-12-20T15:39:35;10.13;;;2.33;;
18188;SDS011;9219;50.396;8.546;2023-12-20T15:42:03;5.87;;;1.80;;
18188;SDS011;9219;50.396;8.546;2023-12-20T15:44:30;7.37;;;2.13;;
18188;SDS011;9219;50.396;8.546;2023-12-20T15:46:58;8.07;;;1.90;;
18188;SDS011;9219;50.396;8.546;2023-12-20T15:49:25;5.07;;;2.10;;
18188;SDS011;9219;50.396;8.546;2023-12-20T15:51:52;3.60;;;2.03;;
18188;SDS011;9219;50.396;8.546;2023-12-20T15:54:21;5.83;;;1.93;;
18188;SDS011;9219;50.396;8.546;2023-12-20T15:57:05;6.10;;;2.13;;
18188;SDS011;9219;50.396;8.546;2023-12-20T15:59:32;2.83;;;1.73;;
18188;SDS011;9219;50.396;8.546;2023-12-20T16:01:59;5.30;;;2.00;;
18188;SDS011;9219;50.396;8.546;2023-12-20T16:04:27;4.47;;;2.30;;
18188;SDS011;9219;50.396;8.546;2023-12-20T16:06:55;6.23;;;2.03;;
18188;SDS011;9219;50.396;8.546;2023-12-20T16:09:22;4.07;;;1.63;;
18188;SDS011;9219;50.396;8.546;2023-12-20T16:11:49;4.53;;;1.80;;
18188;SDS011;9219;50.396;8.546;2023-12-20T16:14:18;4.30;;;2.07;;
18188;SDS011;9219;50.396;8.546;2023-12-20T16:21:53;7.40;;;2.13;;
18188;SDS011;9219;50.396;8.546;2023-12-20T16:24:20;4.93;;;1.70;;
18188;SDS011;9219;50.396;8.546;2023-12-20T16:26:50;8.43;;;2.33;;
18188;SDS011;9219;50.396;8.546;2023-12-20T16:29:21;4.53;;;1.77;;
18188;SDS011;9219;50.396;8.546;2023-12-20T16:31:53;9.13;;;2.67;;
18188;SDS011;9219;50.396;8.546;2023-12-20T16:34:20;8.43;;;2.37;;
18188;SDS011;9219;50.396;8.546;2023-12-20T16:36:52;5.03;;;2.20;;
18188;SDS011;9219;50.396;8.546;2023-12-20T16:39:27;6.57;;;2.70;;
18188;SDS011;9219;50.396;8.546;2023-12-20T16:41:55;7.60;;;2.27;;
18188;SDS011;9219;50.396;8.546;2023-12-20T16:45:10;20.17;;;2.83;;
18188;SDS011;9219;50.396;8.546;2023-12-20T16:47:38;4.03;;;2.07;;
18188;SDS011;9219;50.396;8.546;2023-12-20T16:50:08;4.73;;;2.47;;
18188;SDS011;9219;50.396;8.546;2023-12-20T16:52:39;7.00;;;2.60;;
18188;SDS011;9219;50.396;8.546;2023-12-20T16:55:08;12.60;;;3.27;;
18188;SDS011;9219;50.396;8.546;2023-12-20T16:57:36;11.27;;;3.73;;
18188;SDS011;9219;50.396;8.546;2023-12-20T17:00:07;11.97;;;1.90;;
18188;SDS011;9219;50.396;8.546;2023-12-20T17:06:26;13.40;;;3.43;;
18188;SDS011;9219;50.396;8.546;2023-12-20T17:09:01;5.30;;;2.33;;
18188;SDS011;9219;50.396;8.546;2023-12-20T17:11:36;8.77;;;2.10;;
18188;SDS011;9219;50.396;8.546;2023-12-20T17:14:16;7.30;;;2.27;;
18188;SDS011;9219;50.396;8.546;2023-12-20T17:16:55;14.83;;;4.20;;
18188;SDS011;9219;50.396;8.546;2023-12-20T17:19:27;4.00;;;1.57;;
18188;SDS011;9219;50.396;8.546;2023-12-20T17:22:05;3.27;;;1.77;;
18188;SDS011;9219;50.396;8.546;2023-12-20T17:24:38;5.23;;;1.43;;
18188;SDS011;9219;50.396;8.546;2023-12-20T17:27:13;7.40;;;1.70;;
18188;SDS011;9219;50.396;8.546;2023-12-20T17:34:49;5.60;;;1.60;;
18188;SDS011;9219;50.396;8.546;2023-12-20T17:37:19;4.70;;;2.00;;
18188;SDS011;9219;50.396;8.546;2023-12-20T17:39:47;3.93;;;2.37;;
18188;SDS011;9219;50.396;8.546;2023-12-20T17:42:14;12.20;;;2.00;;
18188;SDS011;9219;50.396;8.546;2023-12-20T17:44:42;3.00;;;1.53;;
18188;SDS011;9219;50.396;8.546;2023-12-20T17:47:10;4.63;;;2.07;;
18188;SDS011;9219;50.396;8.546;2023-12-20T17:49:57;3.03;;;1.80;;
18188;SDS011;9219;50.396;8.546;2023-12-20T17:52:25;12.00;;;3.20;;
18188;SDS011;9219;50.396;8.546;2023-12-20T17:59:59;8.23;;;3.07;;
18188;SDS011;9219;50.396;8.546;2023-12-20T18:02:38;8.47;;;2.40;;
18188;SDS011;9219;50.396;8.546;2023-12-20T18:05:06;4.07;;;2.00;;
18188;SDS011;9219;50.396;8.546;2023-12-20T18:07:35;10.10;;;2.90;;
18188;SDS011;9219;50.396;8.546;2023-12-20T18:10:04;4.47;;;2.90;;
18188;SDS011;9219;50.396;8.546;2023-12-20T18:12:35;14.00;;;3.13;;
18188;SDS011;9219;50.396;8.546;2023-12-20T18:15:04;4.43;;;2.30;;
18188;SDS011;9219;50.396;8.546;2023-12-20T18:17:35;4.17;;;2.10;;
18188;SDS011;9219;50.396;8.546;2023-12-20T18:23:55;5.13;;;2.43;;
18188;SDS011;9219;50.396;8.546;2023-12-20T18:26:36;11.73;;;2.57;;
18188;SDS011;9219;50.396;8.546;2023-12-20T18:29:04;7.33;;;2.30;;
18188;SDS011;9219;50.396;8.546;2023-12-20T18:31:32;7.57;;;2.70;;
18188;SDS011;9219;50.396;8.546;2023-12-20T18:34:00;3.37;;;2.00;;
18188;SDS011;9219;50.396;8.546;2023-12-20T18:36:31;5.13;;;2.20;;
18188;SDS011;9219;50.396;8.546;2023-12-20T18:39:00;8.70;;;2.80;;
18188;SDS011;9219;50.396;8.546;2023-12-20T18:41:27;5.40;;;2.07;;